createdAt,value
2017-09-02T00:00:06.644Z,16.42
2017-09-02T00:02:08.489Z,16.41
2017-09-02T00:04:10.378Z,16.45
2017-09-02T00:06:12.314Z,16.41
2017-09-02T00:08:14.202Z,16.44
2017-09-02T00:10:16.060Z,16.49
2017-09-02T00:12:17.997Z,16.42
2017-09-02T00:14:19.936Z,16.38
2017-09-02T00:16:21.895Z,16.44
2017-09-02T00:18:23.758Z,16.45
2017-09-02T00:20:25.337Z,16.42
2017-09-02T00:22:27.231Z,16.45
2017-09-02T00:24:29.045Z,16.42
2017-09-02T00:26:30.887Z,16.45
2017-09-02T00:28:32.692Z,16.42
2017-09-02T00:30:34.488Z,16.41
2017-09-02T00:32:36.384Z,16.40
2017-09-02T00:34:38.218Z,16.41
2017-09-02T00:36:39.962Z,16.44
2017-09-02T00:38:41.597Z,16.40
2017-09-02T00:40:43.304Z,16.37
2017-09-02T00:42:45.125Z,16.35
2017-09-02T00:44:46.906Z,16.34
2017-09-02T00:46:48.500Z,16.31
2017-09-02T00:48:50.268Z,16.25
2017-09-02T00:50:52.032Z,16.16
2017-09-02T00:52:53.970Z,16.15
2017-09-02T00:54:55.689Z,16.16
2017-09-02T00:56:57.614Z,16.27
2017-09-02T00:58:59.472Z,16.23
2017-09-02T01:01:01.260Z,16.25
2017-09-02T01:03:03.173Z,16.18
2017-09-02T01:05:04.868Z,16.14
2017-09-02T01:07:06.759Z,16.14
2017-09-02T01:09:08.420Z,16.07
2017-09-02T01:11:10.398Z,16.06
2017-09-02T01:13:12.055Z,15.97
2017-09-02T01:15:13.642Z,16.03
2017-09-02T01:17:15.454Z,16.00
2017-09-02T01:19:17.226Z,16.03
2017-09-02T01:21:19.043Z,16.03
2017-09-02T01:23:20.877Z,15.92
2017-09-02T01:25:22.691Z,15.94
2017-09-02T01:27:24.382Z,15.92
2017-09-02T01:29:26.225Z,15.88
2017-09-02T01:31:28.097Z,15.88
2017-09-02T01:33:29.980Z,15.85
2017-09-02T01:35:31.720Z,15.88
2017-09-02T01:37:33.550Z,15.86
2017-09-02T01:39:35.498Z,15.84
2017-09-02T01:41:37.150Z,15.81
2017-09-02T01:43:39.132Z,15.82
2017-09-02T01:45:41.106Z,15.79
2017-09-02T01:47:42.997Z,15.81
2017-09-02T01:49:44.986Z,15.78
2017-09-02T01:51:46.832Z,15.75
2017-09-02T01:53:48.590Z,15.68
2017-09-02T01:55:50.360Z,15.66
2017-09-02T01:57:52.370Z,15.66
2017-09-02T01:59:54.042Z,15.64
2017-09-02T02:01:56.000Z,15.64
2017-09-02T02:03:57.683Z,15.66
2017-09-02T02:05:59.370Z,15.54
2017-09-02T02:08:01.122Z,15.52
2017-09-02T02:10:02.871Z,15.51
2017-09-02T02:12:04.535Z,15.43
2017-09-02T02:14:06.254Z,15.52
2017-09-02T02:16:07.955Z,15.46
2017-09-02T02:18:09.803Z,15.39
2017-09-02T02:20:11.637Z,15.42
2017-09-02T02:22:13.310Z,15.48
2017-09-02T02:24:14.953Z,15.43
2017-09-02T02:26:16.593Z,15.31
2017-09-02T02:28:18.442Z,15.26
2017-09-02T02:30:20.402Z,15.28
2017-09-02T02:32:22.184Z,15.38
2017-09-02T02:34:24.177Z,15.27
2017-09-02T02:36:26.156Z,15.30
2017-09-02T02:38:28.017Z,15.30
2017-09-02T02:40:29.929Z,15.36
2017-09-02T02:42:31.619Z,15.31
2017-09-02T02:44:33.511Z,15.33
2017-09-02T02:46:35.386Z,15.28
2017-09-02T02:48:37.219Z,15.21
2017-09-02T02:50:38.851Z,15.23
2017-09-02T02:52:40.825Z,15.27
2017-09-02T02:54:42.496Z,15.19
2017-09-02T02:56:44.443Z,15.20
2017-09-02T02:58:46.056Z,15.23
2017-09-02T03:00:47.874Z,15.20
2017-09-02T03:02:49.769Z,15.21
2017-09-02T03:04:51.563Z,15.21
2017-09-02T03:06:53.557Z,15.12
2017-09-02T03:08:55.508Z,15.08
2017-09-02T03:10:57.483Z,15.02
2017-09-02T03:12:59.285Z,15.03
2017-09-02T03:15:01.161Z,14.99
2017-09-02T03:17:02.979Z,14.93
2017-09-02T03:19:04.822Z,14.94
2017-09-02T03:21:06.723Z,14.93
2017-09-02T03:23:08.389Z,14.83
2017-09-02T03:25:10.351Z,14.90
2017-09-02T03:27:12.449Z,14.83
2017-09-02T03:29:14.158Z,14.88
2017-09-02T03:31:16.039Z,14.87
2017-09-02T03:33:18.054Z,14.84
2017-09-02T03:35:19.932Z,14.81
2017-09-02T03:37:21.692Z,14.67
2017-09-02T03:39:23.537Z,14.68
2017-09-02T03:41:25.445Z,14.75
2017-09-02T03:43:27.280Z,14.71
2017-09-02T03:45:29.041Z,14.74
2017-09-02T03:47:30.685Z,14.69
2017-09-02T03:49:32.663Z,14.68
2017-09-02T03:51:34.559Z,14.67
2017-09-02T03:53:36.363Z,14.78
2017-09-02T03:55:38.169Z,14.72
2017-09-02T03:57:39.896Z,14.64
2017-09-02T03:59:41.700Z,14.69
2017-09-02T04:01:43.540Z,14.53
2017-09-02T04:03:45.326Z,14.54
2017-09-02T04:05:47.297Z,14.57
2017-09-02T04:07:49.144Z,14.60
2017-09-02T04:09:50.985Z,14.60
2017-09-02T04:11:52.831Z,14.50
2017-09-02T04:13:54.643Z,14.47
2017-09-02T04:15:56.308Z,14.50
2017-09-02T04:17:58.155Z,14.43
2017-09-02T04:19:59.988Z,14.43
2017-09-02T04:22:01.746Z,14.39
2017-09-02T04:24:03.430Z,14.37
2017-09-02T04:26:05.584Z,14.35
2017-09-02T04:28:07.585Z,14.47
2017-09-02T04:30:09.303Z,14.32
2017-09-02T04:32:10.925Z,14.39
2017-09-02T04:34:12.522Z,14.31
2017-09-02T04:36:14.264Z,14.44
2017-09-02T04:38:15.896Z,14.42
2017-09-02T04:40:17.624Z,14.28
2017-09-02T04:42:19.641Z,14.32
2017-09-02T04:44:21.569Z,14.27
2017-09-02T04:46:23.357Z,14.27
2017-09-02T04:48:25.021Z,14.31
2017-09-02T04:50:26.879Z,14.29
2017-09-02T04:52:28.749Z,14.29
2017-09-02T04:54:30.520Z,14.32
2017-09-02T04:56:32.230Z,14.27
2017-09-02T04:58:33.853Z,14.29
2017-09-02T05:00:36.045Z,14.29
2017-09-02T05:02:38.023Z,14.27
2017-09-02T05:04:39.847Z,14.19
2017-09-02T05:06:41.806Z,14.19
2017-09-02T05:08:43.681Z,14.21
2017-09-02T05:10:45.633Z,14.27
2017-09-02T05:12:47.438Z,14.19
2017-09-02T05:14:49.271Z,14.31
2017-09-02T05:16:51.160Z,14.20
2017-09-02T05:18:52.983Z,14.19
2017-09-02T05:20:55.044Z,14.17
2017-09-02T05:22:56.828Z,14.21
2017-09-02T05:24:58.607Z,14.20
2017-09-02T05:27:00.615Z,14.20
2017-09-02T05:29:02.289Z,14.24
2017-09-02T05:31:04.085Z,14.21
2017-09-02T05:33:05.794Z,14.29
2017-09-02T05:35:07.878Z,14.28
2017-09-02T05:37:09.729Z,14.25
2017-09-02T05:39:11.510Z,14.35
2017-09-02T05:41:13.346Z,14.43
2017-09-02T05:43:15.260Z,14.42
2017-09-02T05:45:17.134Z,14.43
2017-09-02T05:47:18.812Z,14.38
2017-09-02T05:49:20.711Z,14.47
2017-09-02T05:51:23.095Z,14.42
2017-09-02T05:53:24.860Z,14.42
2017-09-02T05:55:26.681Z,14.47
2017-09-02T05:57:28.339Z,14.50
2017-09-02T05:59:29.936Z,14.56
2017-09-02T06:01:31.511Z,14.61
2017-09-02T06:03:33.188Z,14.64
2017-09-02T06:05:35.029Z,14.75
2017-09-02T06:07:37.017Z,14.67
2017-09-02T06:09:38.924Z,14.69
2017-09-02T06:11:40.703Z,14.78
2017-09-02T06:13:42.668Z,14.74
2017-09-02T06:15:44.512Z,14.78
2017-09-02T06:17:46.293Z,14.84
2017-09-02T06:19:47.988Z,14.87
2017-09-02T06:21:49.969Z,14.91
2017-09-02T06:23:51.695Z,14.86
2017-09-02T06:25:53.516Z,14.98
2017-09-02T06:27:55.261Z,15.03
2017-09-02T06:29:57.187Z,15.05
2017-09-02T06:31:58.947Z,15.03
2017-09-02T06:34:00.883Z,15.12
2017-09-02T06:36:02.813Z,15.20
2017-09-02T06:38:04.624Z,15.33
2017-09-02T06:40:06.449Z,15.41
2017-09-02T06:42:08.451Z,15.61
2017-09-02T06:44:10.165Z,15.59
2017-09-02T06:46:11.734Z,15.68
2017-09-02T06:48:13.639Z,15.89
2017-09-02T06:50:15.565Z,16.11
2017-09-02T06:52:17.397Z,16.27
2017-09-02T06:54:19.239Z,16.93
2017-09-02T06:56:20.852Z,17.73
2017-09-02T06:58:22.630Z,17.99
2017-09-02T07:00:24.330Z,17.97
2017-09-02T07:02:26.171Z,17.79
2017-09-02T07:04:27.826Z,17.64
2017-09-02T07:06:29.343Z,17.54
2017-09-02T07:08:30.853Z,17.51
2017-09-02T07:10:32.338Z,17.54
2017-09-02T07:12:33.860Z,17.50
2017-09-02T07:14:35.349Z,17.41
2017-09-02T07:16:37.097Z,17.26
2017-09-02T07:18:38.780Z,17.20
2017-09-02T07:20:40.491Z,17.13
2017-09-02T07:22:42.354Z,17.18
2017-09-02T07:24:43.987Z,17.29
2017-09-02T07:26:46.048Z,17.20
2017-09-02T07:28:47.666Z,17.17
2017-09-02T07:30:49.239Z,17.13
2017-09-02T07:32:51.162Z,17.08
2017-09-02T07:34:53.036Z,17.17
2017-09-02T07:36:54.555Z,17.25
2017-09-02T07:38:56.145Z,17.28
2017-09-02T07:40:57.654Z,17.38
2017-09-02T07:42:59.327Z,17.54
2017-09-02T07:45:00.839Z,17.50
2017-09-02T07:47:02.904Z,17.51
2017-09-02T07:49:04.438Z,17.70
2017-09-02T07:51:05.939Z,17.59
2017-09-02T07:53:07.486Z,17.64
2017-09-02T07:55:09.131Z,17.67
2017-09-02T07:57:52.931Z,17.78
2017-09-02T07:59:54.701Z,17.73
2017-09-02T08:01:56.122Z,17.71
2017-09-02T08:03:59.062Z,17.81
2017-09-02T08:06:00.867Z,17.81
2017-09-02T08:08:02.316Z,17.92
2017-09-02T08:10:03.795Z,17.91
2017-09-02T08:12:46.390Z,17.97
2017-09-02T08:14:47.800Z,18.04
2017-09-02T08:16:49.222Z,18.13
2017-09-02T08:18:50.649Z,18.29
2017-09-02T08:20:52.070Z,18.29
2017-09-02T08:22:57.637Z,18.47
2017-09-02T08:24:59.499Z,18.49
2017-09-02T08:27:01.348Z,18.64
2017-09-02T08:29:43.901Z,18.68
2017-09-02T08:31:48.292Z,18.77
2017-09-02T08:33:49.772Z,18.91
2017-09-02T08:35:51.376Z,18.97
2017-09-02T08:37:53.460Z,19.01
2017-09-02T08:39:54.940Z,19.14
2017-09-02T08:41:56.486Z,19.32
2017-09-02T08:43:58.308Z,19.32
2017-09-02T08:46:00.022Z,19.43
2017-09-02T08:48:01.620Z,19.63
2017-09-02T08:50:03.205Z,19.66
2017-09-02T08:52:04.705Z,19.73
2017-09-02T08:54:06.228Z,19.88
2017-09-02T08:56:07.764Z,20.02
2017-09-02T08:58:09.578Z,20.18
2017-09-02T09:00:11.277Z,20.25
2017-09-02T09:02:13.714Z,20.35
2017-09-02T09:04:15.224Z,20.53
2017-09-02T09:06:17.041Z,20.58
2017-09-02T09:08:18.866Z,20.69
2017-09-02T09:10:20.382Z,20.76
2017-09-02T09:12:22.227Z,20.80
2017-09-02T09:14:23.750Z,20.79
2017-09-02T09:16:25.244Z,20.72
2017-09-02T09:18:26.884Z,20.65
2017-09-02T09:20:29.459Z,20.61
2017-09-02T09:22:31.224Z,20.53
2017-09-02T09:24:32.686Z,20.59
2017-09-02T09:26:35.361Z,20.50
2017-09-02T09:28:36.899Z,20.50
2017-09-02T09:30:38.458Z,20.47
2017-09-02T09:32:39.996Z,20.39
2017-09-02T09:34:41.486Z,20.30
2017-09-02T09:36:42.985Z,20.16
2017-09-02T09:38:44.737Z,20.08
2017-09-02T09:40:46.271Z,20.00
2017-09-02T09:42:47.884Z,20.15
2017-09-02T09:44:49.355Z,20.42
2017-09-02T09:46:51.573Z,20.50
2017-09-02T09:48:53.372Z,20.58
2017-09-02T09:50:54.896Z,20.65
2017-09-02T09:52:56.588Z,20.68
2017-09-02T09:54:58.161Z,20.68
2017-09-02T09:56:59.717Z,20.87
2017-09-02T09:59:01.315Z,20.99
2017-09-02T10:01:02.848Z,21.20
2017-09-02T10:03:04.406Z,21.36
2017-09-02T10:05:05.913Z,21.54
2017-09-02T10:07:07.511Z,21.64
2017-09-02T10:09:09.140Z,21.79
2017-09-02T10:11:10.635Z,21.91
2017-09-02T10:13:12.190Z,21.82
2017-09-02T10:15:13.742Z,22.13
2017-09-02T10:17:15.251Z,22.07
2017-09-02T10:19:16.783Z,22.23
2017-09-02T10:21:18.269Z,22.20
2017-09-02T10:23:19.777Z,22.10
2017-09-02T10:25:21.322Z,22.16
2017-09-02T10:27:22.826Z,22.25
2017-09-02T10:29:24.323Z,22.32
2017-09-02T10:31:25.873Z,22.56
2017-09-02T10:33:27.448Z,22.49
2017-09-02T10:35:29.089Z,22.44
2017-09-02T10:37:30.925Z,22.28
2017-09-02T10:39:32.515Z,22.29
2017-09-02T10:41:34.045Z,22.10
2017-09-02T10:43:35.618Z,22.14
2017-09-02T10:45:37.144Z,22.10
2017-09-02T10:47:38.661Z,22.04
2017-09-02T10:49:40.150Z,21.90
2017-09-02T10:51:41.704Z,21.81
2017-09-02T10:53:43.219Z,21.94
2017-09-02T10:55:45.550Z,22.01
2017-09-02T10:57:47.481Z,21.87
2017-09-02T10:59:50.413Z,22.10
2017-09-02T11:02:33.637Z,22.27
2017-09-02T11:04:35.103Z,22.29
2017-09-02T11:06:36.835Z,22.35
2017-09-02T11:08:39.018Z,22.44
2017-09-02T11:10:40.527Z,22.52
2017-09-02T11:12:42.187Z,22.65
2017-09-02T11:14:43.928Z,22.77
2017-09-02T11:16:45.805Z,22.74
2017-09-02T11:18:47.510Z,22.77
2017-09-02T11:20:49.454Z,23.02
2017-09-02T11:22:51.324Z,23.20
2017-09-02T11:24:53.115Z,23.19
2017-09-02T11:26:54.983Z,23.07
2017-09-02T11:28:56.960Z,22.84
2017-09-02T11:30:58.718Z,22.77
2017-09-02T11:33:00.521Z,22.57
2017-09-02T11:35:02.695Z,22.49
2017-09-02T11:37:04.572Z,22.41
2017-09-02T11:39:06.347Z,22.47
2017-09-02T11:41:08.276Z,22.77
2017-09-02T11:43:10.084Z,23.05
2017-09-02T11:45:12.539Z,23.23
2017-09-02T11:47:14.092Z,23.38
2017-09-02T11:49:15.796Z,23.49
2017-09-02T11:51:17.357Z,23.52
2017-09-02T11:53:18.926Z,23.61
2017-09-02T11:55:21.424Z,23.77
2017-09-02T11:57:23.356Z,23.80
2017-09-02T11:59:24.870Z,23.83
2017-09-02T12:01:26.657Z,23.71
2017-09-02T12:03:28.427Z,23.49
2017-09-02T12:05:30.356Z,23.40
2017-09-02T12:07:32.125Z,23.22
2017-09-02T12:10:13.997Z,22.89
2017-09-02T12:12:15.685Z,22.71
2017-09-02T12:14:17.306Z,22.68
2017-09-02T12:16:19.005Z,22.78
2017-09-02T12:18:20.442Z,23.04
2017-09-02T12:20:21.942Z,23.14
2017-09-02T12:22:23.759Z,23.19
2017-09-02T12:24:25.666Z,23.23
2017-09-02T12:27:08.417Z,23.40
2017-09-02T12:29:10.196Z,23.47
2017-09-02T12:31:12.268Z,23.61
2017-09-02T12:33:13.807Z,23.68
2017-09-02T12:35:15.790Z,23.71
2017-09-02T12:37:17.580Z,23.83
2017-09-02T12:39:19.318Z,23.89
2017-09-02T12:41:21.081Z,23.95
2017-09-02T12:43:22.873Z,23.65
2017-09-02T12:45:24.715Z,23.64
2017-09-02T12:47:26.204Z,23.22
2017-09-02T12:49:27.715Z,23.04
2017-09-02T12:51:29.250Z,22.83
2017-09-02T12:53:30.664Z,22.65
2017-09-02T12:55:32.099Z,22.64
2017-09-02T12:57:33.528Z,22.80
2017-09-02T12:59:34.965Z,22.84
2017-09-02T13:01:36.392Z,22.92
2017-09-02T13:03:37.824Z,22.83
2017-09-02T13:05:39.255Z,22.84
2017-09-02T13:07:40.808Z,22.84
2017-09-02T13:09:42.311Z,22.68
2017-09-02T13:11:43.719Z,22.52
2017-09-02T13:13:45.159Z,22.32
2017-09-02T13:15:46.591Z,22.32
2017-09-02T13:17:48.130Z,22.13
2017-09-02T13:19:49.556Z,21.95
2017-09-02T13:21:50.985Z,21.87
2017-09-02T13:23:52.447Z,21.71
2017-09-02T13:25:53.875Z,21.63
2017-09-02T13:27:55.298Z,21.45
2017-09-02T13:29:56.726Z,21.45
2017-09-02T13:31:58.182Z,21.44
2017-09-02T13:33:59.615Z,21.34
2017-09-02T13:36:01.097Z,21.34
2017-09-02T13:38:02.552Z,21.26
2017-09-02T13:40:04.042Z,21.24
2017-09-02T13:42:05.492Z,21.21
2017-09-02T13:44:06.959Z,21.11
2017-09-02T13:46:08.408Z,21.17
2017-09-02T13:48:09.870Z,21.14
2017-09-02T13:50:11.297Z,21.04
2017-09-02T13:52:12.722Z,21.01
2017-09-02T13:54:14.139Z,21.06
2017-09-02T13:56:15.573Z,21.05
2017-09-02T13:58:16.998Z,20.95
2017-09-02T14:00:19.698Z,20.96
2017-09-02T14:02:21.419Z,20.93
2017-09-02T14:04:22.899Z,20.90
2017-09-02T14:06:24.354Z,20.83
2017-09-02T14:08:25.756Z,20.56
2017-09-02T14:10:28.247Z,20.58
2017-09-02T14:12:30.284Z,20.71
2017-09-02T14:14:32.082Z,20.66
2017-09-02T14:17:14.741Z,20.76
2017-09-02T14:19:16.155Z,20.76
2017-09-02T14:21:17.592Z,20.72
2017-09-02T14:23:19.019Z,20.65
2017-09-02T14:25:20.454Z,20.68
2017-09-02T14:27:21.883Z,20.64
2017-09-02T14:29:23.639Z,20.66
2017-09-02T14:31:25.058Z,20.71
2017-09-02T14:33:26.581Z,20.66
2017-09-02T14:35:28.030Z,20.53
2017-09-02T14:37:29.446Z,20.59
2017-09-02T14:39:31.002Z,20.49
2017-09-02T14:41:32.428Z,20.56
2017-09-02T14:43:33.855Z,20.59
2017-09-02T14:45:35.289Z,20.53
2017-09-02T14:47:36.713Z,20.58
2017-09-02T14:49:38.141Z,20.61
2017-09-02T14:51:39.567Z,20.50
2017-09-02T14:53:41.040Z,20.51
2017-09-02T14:55:42.476Z,20.62
2017-09-02T14:57:43.893Z,20.53
2017-09-02T14:59:45.326Z,20.56
2017-09-02T15:01:46.744Z,20.51
2017-09-02T15:03:48.173Z,20.58
2017-09-02T15:05:49.616Z,20.54
2017-09-02T15:07:51.046Z,20.58
2017-09-02T15:09:52.469Z,20.61
2017-09-02T15:11:53.898Z,20.54
2017-09-02T15:13:55.333Z,20.64
2017-09-02T15:15:56.757Z,20.62
2017-09-02T15:17:58.184Z,20.53
2017-09-02T15:19:59.610Z,20.65
2017-09-02T15:22:01.038Z,20.50
2017-09-02T15:24:02.477Z,20.64
2017-09-02T15:26:03.982Z,20.53
2017-09-02T15:28:05.555Z,20.56
2017-09-02T15:30:07.016Z,20.61
2017-09-02T15:32:08.455Z,20.51
2017-09-02T15:34:09.881Z,20.49
2017-09-02T15:36:11.303Z,20.56
2017-09-02T15:38:12.729Z,20.54
2017-09-02T15:40:14.163Z,20.51
2017-09-02T15:42:15.578Z,20.53
2017-09-02T15:44:17.006Z,20.50
2017-09-02T15:46:18.439Z,20.50
2017-09-02T15:48:19.869Z,20.53
2017-09-02T15:50:21.289Z,20.49
2017-09-02T15:52:22.716Z,20.50
2017-09-02T15:54:24.162Z,20.51
2017-09-02T15:56:25.623Z,20.54
2017-09-02T15:58:27.134Z,20.64
2017-09-02T16:00:28.679Z,20.71
2017-09-02T16:02:30.196Z,20.69
2017-09-02T16:04:31.640Z,20.76
2017-09-02T16:06:33.160Z,20.89
2017-09-02T16:08:34.671Z,20.99
2017-09-02T16:10:36.218Z,21.02
2017-09-02T16:12:37.724Z,21.01
2017-09-02T16:14:39.251Z,21.08
2017-09-02T16:16:40.824Z,21.09
2017-09-02T16:18:42.322Z,21.09
2017-09-02T16:20:43.785Z,21.17
2017-09-02T16:22:45.320Z,21.11
2017-09-02T16:24:46.901Z,21.17
2017-09-02T16:26:48.454Z,21.04
2017-09-02T16:28:49.958Z,21.04
2017-09-02T16:30:51.416Z,21.01
2017-09-02T16:32:52.925Z,21.02
2017-09-02T16:34:54.755Z,20.91
2017-09-02T16:36:56.262Z,20.99
2017-09-02T16:38:57.758Z,20.98
2017-09-02T16:40:59.252Z,20.90
2017-09-02T16:43:00.749Z,20.91
2017-09-02T16:45:02.186Z,20.87
2017-09-02T16:47:03.989Z,20.86
2017-09-02T16:49:05.484Z,20.87
2017-09-02T16:51:06.992Z,20.80
2017-09-02T16:53:08.503Z,20.72
2017-09-02T16:55:10.013Z,20.76
2017-09-02T16:57:11.489Z,20.69
2017-09-02T16:59:13.003Z,20.68
2017-09-02T17:01:14.504Z,20.68
2017-09-02T17:03:15.993Z,20.66
2017-09-02T17:05:17.529Z,20.66
2017-09-02T17:07:19.036Z,20.64
2017-09-02T17:09:20.548Z,20.61
2017-09-02T17:11:21.986Z,20.62
2017-09-02T17:13:23.502Z,20.49
2017-09-02T17:15:24.998Z,20.62
2017-09-02T17:17:26.532Z,20.54
2017-09-02T17:19:28.120Z,20.46
2017-09-02T17:21:29.599Z,20.41
2017-09-02T17:23:31.223Z,20.33
2017-09-02T17:25:32.706Z,20.13
2017-09-02T17:27:34.247Z,20.16
2017-09-02T17:29:36.248Z,20.12
2017-09-02T17:31:37.749Z,19.97
2017-09-02T17:33:40.201Z,20.02
2017-09-02T17:35:41.812Z,19.97
2017-09-02T17:37:43.342Z,19.88
2017-09-02T17:39:44.856Z,19.90
2017-09-02T17:41:46.738Z,19.78
2017-09-02T17:43:48.706Z,19.78
2017-09-02T17:45:50.534Z,19.76
2017-09-02T17:47:52.029Z,19.70
2017-09-02T17:49:53.976Z,19.58
2017-09-02T17:51:55.611Z,19.54
2017-09-02T17:53:57.104Z,19.57
2017-09-02T17:55:58.924Z,19.50
2017-09-02T17:58:00.676Z,19.42
2017-09-02T18:00:02.210Z,19.47
2017-09-02T18:02:04.430Z,19.36
2017-09-02T18:04:06.263Z,19.29
2017-09-02T18:06:07.818Z,19.24
2017-09-02T18:08:09.700Z,19.21
2017-09-02T18:10:11.517Z,19.17
2017-09-02T18:12:13.058Z,19.01
2017-09-02T18:14:14.561Z,19.06
2017-09-02T18:16:16.065Z,18.99
2017-09-02T18:18:18.128Z,18.99
2017-09-02T18:20:19.914Z,18.91
2017-09-02T18:22:21.809Z,18.84
2017-09-02T18:24:24.714Z,18.70
2017-09-02T18:26:26.404Z,18.72
2017-09-02T18:28:27.926Z,18.65
2017-09-02T18:30:29.426Z,18.61
2017-09-02T18:32:30.984Z,18.59
2017-09-02T18:34:33.731Z,18.57
2017-09-02T18:36:35.358Z,18.52
2017-09-02T18:38:37.162Z,18.54
2017-09-02T18:40:38.796Z,18.47
2017-09-02T18:42:40.601Z,18.47
2017-09-02T18:44:46.290Z,18.37
2017-09-02T18:46:50.657Z,18.36
2017-09-02T18:48:52.968Z,18.34
2017-09-02T18:50:56.583Z,18.31
2017-09-02T18:52:58.331Z,18.33
2017-09-02T18:55:00.254Z,18.21
2017-09-02T18:57:01.833Z,18.25
2017-09-02T18:59:03.725Z,18.17
2017-09-02T19:01:05.251Z,18.10
2017-09-02T19:03:07.002Z,18.03
2017-09-02T19:05:08.493Z,18.02
2017-09-02T19:07:10.566Z,18.03
2017-09-02T19:09:12.376Z,17.89
2017-09-02T19:11:14.113Z,17.95
2017-09-02T19:13:15.797Z,17.92
2017-09-02T19:15:17.638Z,17.89
2017-09-02T19:17:20.414Z,17.82
2017-09-02T19:19:22.017Z,17.78
2017-09-02T19:21:23.551Z,17.74
2017-09-02T19:23:25.319Z,17.73
2017-09-02T19:25:26.914Z,17.66
2017-09-02T19:27:28.952Z,17.59
2017-09-02T19:29:30.977Z,17.59
2017-09-02T19:31:32.791Z,17.67
2017-09-02T19:33:34.304Z,17.59
2017-09-02T19:35:35.809Z,17.59
2017-09-02T19:37:37.314Z,17.50
2017-09-02T19:39:38.846Z,17.48
2017-09-02T19:41:40.442Z,17.44
2017-09-02T19:43:41.935Z,17.40
2017-09-02T19:45:43.598Z,17.32
2017-09-02T19:47:45.560Z,17.41
2017-09-02T19:49:47.097Z,17.36
2017-09-02T19:51:48.898Z,17.38
2017-09-02T19:53:51.282Z,17.26
2017-09-02T19:55:53.143Z,17.30
2017-09-02T19:57:55.334Z,17.26
2017-09-02T19:59:57.101Z,17.22
2017-09-02T20:01:58.634Z,17.28
2017-09-02T20:04:00.143Z,17.22
2017-09-02T20:06:01.686Z,17.17
2017-09-02T20:08:03.243Z,17.17
2017-09-02T20:10:04.809Z,17.15
2017-09-02T20:12:06.567Z,17.13
2017-09-02T20:14:08.105Z,17.04
2017-09-02T20:16:09.877Z,17.04
2017-09-02T20:18:11.716Z,16.96
2017-09-02T20:20:13.475Z,16.98
2017-09-02T20:22:15.077Z,16.86
2017-09-02T20:24:16.574Z,16.90
2017-09-02T20:26:18.188Z,16.85
2017-09-02T20:28:19.671Z,16.88
2017-09-02T20:30:21.189Z,16.92
2017-09-02T20:32:22.707Z,16.88
2017-09-02T20:34:24.240Z,16.78
2017-09-02T20:36:25.993Z,16.81
2017-09-02T20:38:27.536Z,16.81
2017-09-02T20:40:29.652Z,16.81
2017-09-02T20:42:31.760Z,16.78
2017-09-02T20:44:33.248Z,16.77
2017-09-02T20:46:34.990Z,16.81
2017-09-02T20:48:36.557Z,16.70
2017-09-02T20:50:38.266Z,16.65
2017-09-02T20:52:39.835Z,16.67
2017-09-02T20:54:41.404Z,16.58
2017-09-02T20:56:42.963Z,16.56
2017-09-02T20:58:44.478Z,16.56
2017-09-02T21:00:46.703Z,16.52
2017-09-02T21:02:48.252Z,16.50
2017-09-02T21:04:50.150Z,16.45
2017-09-02T21:06:51.628Z,16.45
2017-09-02T21:08:53.162Z,16.50
2017-09-02T21:10:56.978Z,16.48
2017-09-02T21:13:00.022Z,16.48
2017-09-02T21:15:01.997Z,16.42
2017-09-02T21:17:05.389Z,16.40
2017-09-02T21:19:08.334Z,16.31
2017-09-02T21:21:09.925Z,16.35
2017-09-02T21:23:11.837Z,16.30
2017-09-02T21:25:13.364Z,16.25
2017-09-02T21:27:14.927Z,16.25
2017-09-02T21:29:16.560Z,16.20
2017-09-02T21:31:18.112Z,16.15
2017-09-02T21:33:19.609Z,16.15
2017-09-02T21:35:23.174Z,16.18
2017-09-02T21:37:24.800Z,16.09
2017-09-02T21:39:29.296Z,16.15
2017-09-02T21:41:31.045Z,16.12
2017-09-02T21:43:32.491Z,16.03
2017-09-02T21:45:34.068Z,16.01
2017-09-02T21:47:35.554Z,15.94
2017-09-02T21:49:37.087Z,15.97
2017-09-02T21:51:38.594Z,15.89
2017-09-02T21:53:40.193Z,15.97
2017-09-02T21:55:41.712Z,15.92
2017-09-02T21:57:45.098Z,15.96
2017-09-02T21:59:46.505Z,15.93
2017-09-02T22:01:48.037Z,15.89
2017-09-02T22:03:50.961Z,15.79
2017-09-02T22:05:52.492Z,15.76
2017-09-02T22:07:53.988Z,15.81
2017-09-02T22:09:55.510Z,15.76
2017-09-02T22:11:57.056Z,15.74
2017-09-02T22:13:58.589Z,15.75
2017-09-02T22:16:00.178Z,15.75
2017-09-02T22:18:02.914Z,15.76
2017-09-02T22:20:04.518Z,15.75
2017-09-02T22:22:07.187Z,15.68
2017-09-02T22:24:08.617Z,15.68
2017-09-02T22:26:11.135Z,15.74
2017-09-02T22:28:13.068Z,15.79
2017-09-02T22:30:15.002Z,15.68
2017-09-02T22:32:16.950Z,15.64
2017-09-02T22:34:18.481Z,15.63
2017-09-02T22:36:20.910Z,15.61
2017-09-02T22:38:23.102Z,15.60
2017-09-02T22:40:25.016Z,15.48
2017-09-02T22:42:26.974Z,15.49
2017-09-02T22:44:28.825Z,15.49
2017-09-02T22:46:30.731Z,15.45
2017-09-02T22:48:32.727Z,15.48
2017-09-02T22:50:35.229Z,15.48
2017-09-02T22:52:36.686Z,15.51
2017-09-02T22:54:38.164Z,15.33
2017-09-02T22:56:39.689Z,15.38
2017-09-02T22:58:41.241Z,15.31
2017-09-02T23:00:42.745Z,15.38
2017-09-02T23:02:44.258Z,15.30
2017-09-02T23:04:45.846Z,15.35
2017-09-02T23:06:48.258Z,15.24
2017-09-02T23:08:49.641Z,15.27
2017-09-02T23:10:51.152Z,15.36
2017-09-02T23:12:52.760Z,15.31
2017-09-02T23:14:54.299Z,15.21
2017-09-02T23:16:55.788Z,15.19
2017-09-02T23:18:58.381Z,15.21
2017-09-02T23:20:59.858Z,15.20
2017-09-02T23:23:01.438Z,15.28
2017-09-02T23:25:03.033Z,15.26
2017-09-02T23:27:05.456Z,15.21
2017-09-02T23:29:06.896Z,15.19
2017-09-02T23:31:08.393Z,15.17
2017-09-02T23:33:10.909Z,15.02
2017-09-02T23:35:13.486Z,15.06
2017-09-02T23:37:14.963Z,15.12
2017-09-02T23:39:16.476Z,15.02
2017-09-02T23:41:19.017Z,15.02
2017-09-02T23:43:20.892Z,15.11
2017-09-02T23:45:23.275Z,15.03
2017-09-02T23:47:24.866Z,15.05
2017-09-02T23:49:26.388Z,15.09
2017-09-02T23:51:27.898Z,14.91
2017-09-02T23:53:29.472Z,14.93
2017-09-02T23:55:30.998Z,14.84
2017-09-02T23:57:32.633Z,14.91
2017-09-02T23:59:34.223Z,14.84
